<?xml version="1.0" encoding="UTF-8" standalone="no" ?>
<gpx xmlns="http://www.topografix.com/GPX/1/1" xmlns:xsi="http://www.w3.org/2001/XMLSchema-instance" xsi:schemaLocation="http://www.topografix.com/GPX/1/1 http://www.topografix.com/GPX/1/1/gpx.xsd" version="1.1" creator="VisuGPX - https://www.visugpx.com">
  <metadata>
    <name>Les Sauvages / Tarare Gr 4</name>
  </metadata>
  <trk>
    <name><![CDATA[Les Sauvages Gr 4]]></name>
    <trkseg>
      <trkpt lat="45.89377" lon="4.40036">
        <ele>433</ele>
        <time>2021-04-14T11:33:19+02:00</time>
      </trkpt>
      <trkpt lat="45.89431" lon="4.39914">
        <ele>448</ele>
        <time>2021-04-14T11:33:24+02:00</time>
      </trkpt>
      <trkpt lat="45.89446" lon="4.39794">
        <ele>456</ele>
        <time>2021-04-14T11:33:29+02:00</time>
      </trkpt>
      <trkpt lat="45.89457" lon="4.3971">
        <ele>460</ele>
        <time>2021-04-14T11:33:34+02:00</time>
      </trkpt>
      <trkpt lat="45.89474" lon="4.39716">
        <ele>465</ele>
        <time>2021-04-14T11:33:39+02:00</time>
      </trkpt>
      <trkpt lat="45.895" lon="4.39871">
        <ele>471</ele>
        <time>2021-04-14T11:33:44+02:00</time>
      </trkpt>
      <trkpt lat="45.89534" lon="4.39914">
        <ele>472</ele>
        <time>2021-04-14T11:33:49+02:00</time>
      </trkpt>
      <trkpt lat="45.89576" lon="4.39884">
        <ele>478</ele>
        <time>2021-04-14T11:33:54+02:00</time>
      </trkpt>
      <trkpt lat="45.89604" lon="4.39729">
        <ele>495</ele>
        <time>2021-04-14T11:33:59+02:00</time>
      </trkpt>
      <trkpt lat="45.89897" lon="4.39189">
        <ele>558</ele>
        <time>2021-04-14T11:34:04+02:00</time>
      </trkpt>
      <trkpt lat="45.89957" lon="4.38995">
        <ele>587</ele>
        <time>2021-04-14T11:34:09+02:00</time>
      </trkpt>
      <trkpt lat="45.89966" lon="4.38927">
        <ele>589</ele>
        <time>2021-04-14T11:34:14+02:00</time>
      </trkpt>
      <trkpt lat="45.89973" lon="4.38766">
        <ele>596</ele>
        <time>2021-04-14T11:34:19+02:00</time>
      </trkpt>
      <trkpt lat="45.90008" lon="4.38712">
        <ele>598</ele>
        <time>2021-04-14T11:34:24+02:00</time>
      </trkpt>
      <trkpt lat="45.90103" lon="4.38622">
        <ele>611</ele>
        <time>2021-04-14T11:34:29+02:00</time>
      </trkpt>
      <trkpt lat="45.90123" lon="4.38523">
        <ele>618</ele>
        <time>2021-04-14T11:34:34+02:00</time>
      </trkpt>
      <trkpt lat="45.90126" lon="4.38455">
        <ele>620</ele>
        <time>2021-04-14T11:34:39+02:00</time>
      </trkpt>
      <trkpt lat="45.90169" lon="4.38373">
        <ele>628</ele>
        <time>2021-04-14T11:34:44+02:00</time>
      </trkpt>
      <trkpt lat="45.90253" lon="4.38332">
        <ele>644</ele>
        <time>2021-04-14T11:34:49+02:00</time>
      </trkpt>
      <trkpt lat="45.90475" lon="4.38296">
        <ele>668</ele>
        <time>2021-04-14T11:34:54+02:00</time>
      </trkpt>
      <trkpt lat="45.90505" lon="4.38259">
        <ele>670</ele>
        <time>2021-04-14T11:34:59+02:00</time>
      </trkpt>
      <trkpt lat="45.90981" lon="4.37197">
        <ele>759</ele>
        <time>2021-04-14T11:35:04+02:00</time>
      </trkpt>
      <trkpt lat="45.91036" lon="4.3715">
        <ele>764</ele>
        <time>2021-04-14T11:35:09+02:00</time>
      </trkpt>
      <trkpt lat="45.91059" lon="4.37176">
        <ele>761</ele>
        <time>2021-04-14T11:35:14+02:00</time>
      </trkpt>
      <trkpt lat="45.91065" lon="4.37157">
        <ele>763</ele>
        <time>2021-04-14T11:35:19+02:00</time>
      </trkpt>
      <trkpt lat="45.91107" lon="4.37169">
        <ele>763</ele>
        <time>2021-04-14T11:35:24+02:00</time>
      </trkpt>
      <trkpt lat="45.91184" lon="4.37077">
        <ele>771</ele>
        <time>2021-04-14T11:35:29+02:00</time>
      </trkpt>
      <trkpt lat="45.91217" lon="4.3706">
        <ele>770</ele>
        <time>2021-04-14T11:35:34+02:00</time>
      </trkpt>
      <trkpt lat="45.91269" lon="4.37148">
        <ele>770</ele>
        <time>2021-04-14T11:35:39+02:00</time>
      </trkpt>
      <trkpt lat="45.91353" lon="4.37298">
        <ele>763</ele>
        <time>2021-04-14T11:35:44+02:00</time>
      </trkpt>
      <trkpt lat="45.91541" lon="4.37418">
        <ele>767</ele>
        <time>2021-04-14T11:35:49+02:00</time>
      </trkpt>
      <trkpt lat="45.9166" lon="4.37519">
        <ele>766</ele>
        <time>2021-04-14T11:35:54+02:00</time>
      </trkpt>
      <trkpt lat="45.91663" lon="4.37517">
        <ele>765</ele>
        <time>2021-04-14T11:35:59+02:00</time>
      </trkpt>
      <trkpt lat="45.91725" lon="4.37607">
        <ele>759</ele>
        <time>2021-04-14T11:36:04+02:00</time>
      </trkpt>
      <trkpt lat="45.91878" lon="4.37747">
        <ele>740</ele>
        <time>2021-04-14T11:36:09+02:00</time>
      </trkpt>
      <trkpt lat="45.91965" lon="4.37824">
        <ele>731</ele>
        <time>2021-04-14T11:36:14+02:00</time>
      </trkpt>
      <trkpt lat="45.92063" lon="4.37813">
        <ele>728</ele>
        <time>2021-04-14T11:36:19+02:00</time>
      </trkpt>
      <trkpt lat="45.92141" lon="4.37753">
        <ele>723</ele>
        <time>2021-04-14T11:36:24+02:00</time>
      </trkpt>
      <trkpt lat="45.92613" lon="4.37725">
        <ele>723</ele>
        <time>2021-04-14T11:36:29+02:00</time>
      </trkpt>
      <trkpt lat="45.92659" lon="4.37757">
        <ele>720</ele>
        <time>2021-04-14T11:36:34+02:00</time>
      </trkpt>
      <trkpt lat="45.92695" lon="4.3785">
        <ele>723</ele>
        <time>2021-04-14T11:36:39+02:00</time>
      </trkpt>
      <trkpt lat="45.92758" lon="4.3785">
        <ele>728</ele>
        <time>2021-04-14T11:36:44+02:00</time>
      </trkpt>
      <trkpt lat="45.92831" lon="4.37862">
        <ele>734</ele>
        <time>2021-04-14T11:36:49+02:00</time>
      </trkpt>
      <trkpt lat="45.92937" lon="4.37972">
        <ele>761</ele>
        <time>2021-04-14T11:36:54+02:00</time>
      </trkpt>
      <trkpt lat="45.93038" lon="4.38051">
        <ele>778</ele>
        <time>2021-04-14T11:36:59+02:00</time>
      </trkpt>
      <trkpt lat="45.93092" lon="4.38058">
        <ele>787</ele>
        <time>2021-04-14T11:37:04+02:00</time>
      </trkpt>
      <trkpt lat="45.9329" lon="4.38139">
        <ele>809</ele>
        <time>2021-04-14T11:37:09+02:00</time>
      </trkpt>
      <trkpt lat="45.93465" lon="4.38307">
        <ele>817</ele>
        <time>2021-04-14T11:37:14+02:00</time>
      </trkpt>
      <trkpt lat="45.93543" lon="4.38474">
        <ele>833</ele>
        <time>2021-04-14T11:37:19+02:00</time>
      </trkpt>
      <trkpt lat="45.93611" lon="4.38626">
        <ele>847</ele>
        <time>2021-04-14T11:37:24+02:00</time>
      </trkpt>
      <trkpt lat="45.93829" lon="4.38824">
        <ele>847</ele>
        <time>2021-04-14T11:37:29+02:00</time>
      </trkpt>
      <trkpt lat="45.93996" lon="4.38901">
        <ele>855</ele>
        <time>2021-04-14T11:37:34+02:00</time>
      </trkpt>
      <trkpt lat="45.94035" lon="4.38946">
        <ele>860</ele>
        <time>2021-04-14T11:37:39+02:00</time>
      </trkpt>
      <trkpt lat="45.94084" lon="4.38955">
        <ele>861</ele>
        <time>2021-04-14T11:37:44+02:00</time>
      </trkpt>
      <trkpt lat="45.9416" lon="4.38948">
        <ele>860</ele>
        <time>2021-04-14T11:37:49+02:00</time>
      </trkpt>
      <trkpt lat="45.94304" lon="4.39025">
        <ele>860</ele>
        <time>2021-04-14T11:37:54+02:00</time>
      </trkpt>
      <trkpt lat="45.9439" lon="4.39032">
        <ele>863</ele>
        <time>2021-04-14T11:37:59+02:00</time>
      </trkpt>
      <trkpt lat="45.94477" lon="4.38961">
        <ele>860</ele>
        <time>2021-04-14T11:38:04+02:00</time>
      </trkpt>
      <trkpt lat="45.94524" lon="4.38901">
        <ele>856</ele>
        <time>2021-04-14T11:38:09+02:00</time>
      </trkpt>
      <trkpt lat="45.94621" lon="4.38792">
        <ele>847</ele>
        <time>2021-04-14T11:38:14+02:00</time>
      </trkpt>
      <trkpt lat="45.94669" lon="4.38798">
        <ele>844</ele>
        <time>2021-04-14T11:38:19+02:00</time>
      </trkpt>
      <trkpt lat="45.94759" lon="4.38987">
        <ele>820</ele>
        <time>2021-04-14T11:38:24+02:00</time>
      </trkpt>
      <trkpt lat="45.9473" lon="4.39023">
        <ele>819</ele>
        <time>2021-04-14T11:38:29+02:00</time>
      </trkpt>
      <trkpt lat="45.94699" lon="4.39013">
        <ele>823</ele>
        <time>2021-04-14T11:38:34+02:00</time>
      </trkpt>
      <trkpt lat="45.94663" lon="4.3897">
        <ele>836</ele>
        <time>2021-04-14T11:38:39+02:00</time>
      </trkpt>
      <trkpt lat="45.94574" lon="4.38995">
        <ele>846</ele>
        <time>2021-04-14T11:38:44+02:00</time>
      </trkpt>
      <trkpt lat="45.94556" lon="4.39088">
        <ele>829</ele>
        <time>2021-04-14T11:38:49+02:00</time>
      </trkpt>
      <trkpt lat="45.94526" lon="4.39124">
        <ele>833</ele>
        <time>2021-04-14T11:38:54+02:00</time>
      </trkpt>
      <trkpt lat="45.94521" lon="4.39124">
        <ele>835</ele>
        <time>2021-04-14T11:38:59+02:00</time>
      </trkpt>
      <trkpt lat="45.94399" lon="4.39365">
        <ele>826</ele>
        <time>2021-04-14T11:39:04+02:00</time>
      </trkpt>
      <trkpt lat="45.94378" lon="4.39446">
        <ele>826</ele>
        <time>2021-04-14T11:39:09+02:00</time>
      </trkpt>
      <trkpt lat="45.94389" lon="4.3954">
        <ele>826</ele>
        <time>2021-04-14T11:39:14+02:00</time>
      </trkpt>
      <trkpt lat="45.94381" lon="4.39598">
        <ele>824</ele>
        <time>2021-04-14T11:39:19+02:00</time>
      </trkpt>
      <trkpt lat="45.94296" lon="4.39772">
        <ele>804</ele>
        <time>2021-04-14T11:39:24+02:00</time>
      </trkpt>
      <trkpt lat="45.9429" lon="4.39905">
        <ele>786</ele>
        <time>2021-04-14T11:39:29+02:00</time>
      </trkpt>
      <trkpt lat="45.94199" lon="4.40034">
        <ele>799</ele>
        <time>2021-04-14T11:39:34+02:00</time>
      </trkpt>
      <trkpt lat="45.94189" lon="4.40098">
        <ele>795</ele>
        <time>2021-04-14T11:39:39+02:00</time>
      </trkpt>
      <trkpt lat="45.94196" lon="4.40163">
        <ele>788</ele>
        <time>2021-04-14T11:39:44+02:00</time>
      </trkpt>
      <trkpt lat="45.94242" lon="4.40341">
        <ele>776</ele>
        <time>2021-04-14T11:39:49+02:00</time>
      </trkpt>
      <trkpt lat="45.94216" lon="4.40416">
        <ele>767</ele>
        <time>2021-04-14T11:39:54+02:00</time>
      </trkpt>
      <trkpt lat="45.94132" lon="4.40558">
        <ele>770</ele>
        <time>2021-04-14T11:39:59+02:00</time>
      </trkpt>
      <trkpt lat="45.94111" lon="4.40626">
        <ele>771</ele>
        <time>2021-04-14T11:40:04+02:00</time>
      </trkpt>
      <trkpt lat="45.94059" lon="4.40736">
        <ele>770</ele>
        <time>2021-04-14T11:40:09+02:00</time>
      </trkpt>
      <trkpt lat="45.94041" lon="4.408">
        <ele>764</ele>
        <time>2021-04-14T11:40:14+02:00</time>
      </trkpt>
      <trkpt lat="45.94035" lon="4.40858">
        <ele>757</ele>
        <time>2021-04-14T11:40:19+02:00</time>
      </trkpt>
      <trkpt lat="45.94039" lon="4.40912">
        <ele>748</ele>
        <time>2021-04-14T11:40:24+02:00</time>
      </trkpt>
      <trkpt lat="45.94011" lon="4.40963">
        <ele>746</ele>
        <time>2021-04-14T11:40:29+02:00</time>
      </trkpt>
      <trkpt lat="45.93984" lon="4.41019">
        <ele>738</ele>
        <time>2021-04-14T11:40:34+02:00</time>
      </trkpt>
      <trkpt lat="45.93989" lon="4.41156">
        <ele>727</ele>
        <time>2021-04-14T11:40:39+02:00</time>
      </trkpt>
      <trkpt lat="45.93968" lon="4.41242">
        <ele>725</ele>
        <time>2021-04-14T11:40:44+02:00</time>
      </trkpt>
      <trkpt lat="45.93953" lon="4.41343">
        <ele>722</ele>
        <time>2021-04-14T11:40:49+02:00</time>
      </trkpt>
      <trkpt lat="45.9389" lon="4.41493">
        <ele>717</ele>
        <time>2021-04-14T11:40:54+02:00</time>
      </trkpt>
      <trkpt lat="45.93808" lon="4.41598">
        <ele>710</ele>
        <time>2021-04-14T11:40:59+02:00</time>
      </trkpt>
      <trkpt lat="45.93743" lon="4.4165">
        <ele>709</ele>
        <time>2021-04-14T11:41:04+02:00</time>
      </trkpt>
      <trkpt lat="45.93674" lon="4.41678">
        <ele>706</ele>
        <time>2021-04-14T11:41:09+02:00</time>
      </trkpt>
      <trkpt lat="45.93471" lon="4.42006">
        <ele>652</ele>
        <time>2021-04-14T11:41:14+02:00</time>
      </trkpt>
      <trkpt lat="45.93389" lon="4.41933">
        <ele>638</ele>
        <time>2021-04-14T11:41:19+02:00</time>
      </trkpt>
      <trkpt lat="45.93344" lon="4.4183">
        <ele>626</ele>
        <time>2021-04-14T11:41:24+02:00</time>
      </trkpt>
      <trkpt lat="45.93214" lon="4.41646">
        <ele>591</ele>
        <time>2021-04-14T11:41:29+02:00</time>
      </trkpt>
      <trkpt lat="45.93289" lon="4.41674">
        <ele>595</ele>
        <time>2021-04-14T11:41:34+02:00</time>
      </trkpt>
      <trkpt lat="45.93374" lon="4.41659">
        <ele>601</ele>
        <time>2021-04-14T11:41:39+02:00</time>
      </trkpt>
      <trkpt lat="45.9337" lon="4.41549">
        <ele>599</ele>
        <time>2021-04-14T11:41:44+02:00</time>
      </trkpt>
      <trkpt lat="45.93346" lon="4.41506">
        <ele>595</ele>
        <time>2021-04-14T11:41:49+02:00</time>
      </trkpt>
      <trkpt lat="45.93331" lon="4.41363">
        <ele>601</ele>
        <time>2021-04-14T11:41:54+02:00</time>
      </trkpt>
      <trkpt lat="45.93325" lon="4.41309">
        <ele>598</ele>
        <time>2021-04-14T11:41:59+02:00</time>
      </trkpt>
      <trkpt lat="45.93346" lon="4.41253">
        <ele>598</ele>
        <time>2021-04-14T11:42:04+02:00</time>
      </trkpt>
      <trkpt lat="45.93432" lon="4.41185">
        <ele>611</ele>
        <time>2021-04-14T11:42:09+02:00</time>
      </trkpt>
      <trkpt lat="45.93473" lon="4.41135">
        <ele>615</ele>
        <time>2021-04-14T11:42:14+02:00</time>
      </trkpt>
      <trkpt lat="45.93474" lon="4.41107">
        <ele>616</ele>
        <time>2021-04-14T11:42:19+02:00</time>
      </trkpt>
      <trkpt lat="45.9341" lon="4.41019">
        <ele>604</ele>
        <time>2021-04-14T11:42:24+02:00</time>
      </trkpt>
      <trkpt lat="45.9339" lon="4.40966">
        <ele>599</ele>
        <time>2021-04-14T11:42:29+02:00</time>
      </trkpt>
      <trkpt lat="45.93396" lon="4.4088">
        <ele>599</ele>
        <time>2021-04-14T11:42:34+02:00</time>
      </trkpt>
      <trkpt lat="45.93419" lon="4.40807">
        <ele>602</ele>
        <time>2021-04-14T11:42:39+02:00</time>
      </trkpt>
      <trkpt lat="45.93443" lon="4.40704">
        <ele>599</ele>
        <time>2021-04-14T11:42:44+02:00</time>
      </trkpt>
      <trkpt lat="45.93468" lon="4.40646">
        <ele>603</ele>
        <time>2021-04-14T11:42:49+02:00</time>
      </trkpt>
      <trkpt lat="45.93459" lon="4.40584">
        <ele>602</ele>
        <time>2021-04-14T11:42:54+02:00</time>
      </trkpt>
      <trkpt lat="45.93504" lon="4.40442">
        <ele>606</ele>
        <time>2021-04-14T11:42:59+02:00</time>
      </trkpt>
      <trkpt lat="45.93531" lon="4.40361">
        <ele>609</ele>
        <time>2021-04-14T11:43:04+02:00</time>
      </trkpt>
      <trkpt lat="45.93607" lon="4.40174">
        <ele>618</ele>
        <time>2021-04-14T11:43:09+02:00</time>
      </trkpt>
      <trkpt lat="45.93699" lon="4.40137">
        <ele>626</ele>
        <time>2021-04-14T11:43:14+02:00</time>
      </trkpt>
      <trkpt lat="45.93701" lon="4.4009">
        <ele>627</ele>
        <time>2021-04-14T11:43:19+02:00</time>
      </trkpt>
      <trkpt lat="45.93662" lon="4.40028">
        <ele>623</ele>
        <time>2021-04-14T11:43:24+02:00</time>
      </trkpt>
      <trkpt lat="45.93601" lon="4.39927">
        <ele>651</ele>
        <time>2021-04-14T11:43:29+02:00</time>
      </trkpt>
      <trkpt lat="45.93616" lon="4.39848">
        <ele>657</ele>
        <time>2021-04-14T11:43:34+02:00</time>
      </trkpt>
      <trkpt lat="45.9352" lon="4.39925">
        <ele>671</ele>
        <time>2021-04-14T11:43:39+02:00</time>
      </trkpt>
      <trkpt lat="45.93422" lon="4.39925">
        <ele>696</ele>
        <time>2021-04-14T11:43:44+02:00</time>
      </trkpt>
      <trkpt lat="45.93261" lon="4.40097">
        <ele>705</ele>
        <time>2021-04-14T11:43:49+02:00</time>
      </trkpt>
      <trkpt lat="45.93205" lon="4.40118">
        <ele>704</ele>
        <time>2021-04-14T11:43:54+02:00</time>
      </trkpt>
      <trkpt lat="45.93095" lon="4.40055">
        <ele>716</ele>
        <time>2021-04-14T11:43:59+02:00</time>
      </trkpt>
      <trkpt lat="45.93143" lon="4.3998">
        <ele>720</ele>
        <time>2021-04-14T11:44:04+02:00</time>
      </trkpt>
      <trkpt lat="45.9316" lon="4.39918">
        <ele>725</ele>
        <time>2021-04-14T11:44:09+02:00</time>
      </trkpt>
      <trkpt lat="45.93205" lon="4.3986">
        <ele>737</ele>
        <time>2021-04-14T11:44:14+02:00</time>
      </trkpt>
      <trkpt lat="45.9331" lon="4.39536">
        <ele>762</ele>
        <time>2021-04-14T11:44:19+02:00</time>
      </trkpt>
      <trkpt lat="45.93393" lon="4.39382">
        <ele>769</ele>
        <time>2021-04-14T11:44:24+02:00</time>
      </trkpt>
      <trkpt lat="45.93393" lon="4.39377">
        <ele>769</ele>
        <time>2021-04-14T11:44:29+02:00</time>
      </trkpt>
      <trkpt lat="45.93393" lon="4.39349">
        <ele>769</ele>
        <time>2021-04-14T11:44:34+02:00</time>
      </trkpt>
      <trkpt lat="45.93366" lon="4.39304">
        <ele>764</ele>
        <time>2021-04-14T11:44:39+02:00</time>
      </trkpt>
      <trkpt lat="45.93359" lon="4.3927">
        <ele>763</ele>
        <time>2021-04-14T11:44:44+02:00</time>
      </trkpt>
      <trkpt lat="45.93371" lon="4.39208">
        <ele>769</ele>
        <time>2021-04-14T11:44:49+02:00</time>
      </trkpt>
      <trkpt lat="45.93343" lon="4.39107">
        <ele>774</ele>
        <time>2021-04-14T11:44:54+02:00</time>
      </trkpt>
      <trkpt lat="45.93086" lon="4.38895">
        <ele>751</ele>
        <time>2021-04-14T11:44:59+02:00</time>
      </trkpt>
      <trkpt lat="45.92947" lon="4.3898">
        <ele>731</ele>
        <time>2021-04-14T11:45:04+02:00</time>
      </trkpt>
      <trkpt lat="45.92837" lon="4.39118">
        <ele>708</ele>
        <time>2021-04-14T11:45:09+02:00</time>
      </trkpt>
      <trkpt lat="45.92787" lon="4.39143">
        <ele>699</ele>
        <time>2021-04-14T11:45:14+02:00</time>
      </trkpt>
      <trkpt lat="45.92766" lon="4.39111">
        <ele>698</ele>
        <time>2021-04-14T11:45:19+02:00</time>
      </trkpt>
      <trkpt lat="45.92634" lon="4.39083">
        <ele>726</ele>
        <time>2021-04-14T11:45:24+02:00</time>
      </trkpt>
      <trkpt lat="45.92723" lon="4.38976">
        <ele>718</ele>
        <time>2021-04-14T11:45:29+02:00</time>
      </trkpt>
      <trkpt lat="45.92737" lon="4.3892">
        <ele>717</ele>
        <time>2021-04-14T11:45:34+02:00</time>
      </trkpt>
      <trkpt lat="45.92672" lon="4.38935">
        <ele>727</ele>
        <time>2021-04-14T11:45:39+02:00</time>
      </trkpt>
      <trkpt lat="45.9255" lon="4.38888">
        <ele>743</ele>
        <time>2021-04-14T11:45:44+02:00</time>
      </trkpt>
      <trkpt lat="45.92543" lon="4.38931">
        <ele>749</ele>
        <time>2021-04-14T11:45:49+02:00</time>
      </trkpt>
      <trkpt lat="45.92492" lon="4.38987">
        <ele>759</ele>
        <time>2021-04-14T11:45:54+02:00</time>
      </trkpt>
      <trkpt lat="45.92398" lon="4.39083">
        <ele>752</ele>
        <time>2021-04-14T11:45:59+02:00</time>
      </trkpt>
      <trkpt lat="45.92377" lon="4.39131">
        <ele>744</ele>
        <time>2021-04-14T11:46:04+02:00</time>
      </trkpt>
      <trkpt lat="45.92414" lon="4.39152">
        <ele>746</ele>
        <time>2021-04-14T11:46:09+02:00</time>
      </trkpt>
      <trkpt lat="45.92358" lon="4.39197">
        <ele>737</ele>
        <time>2021-04-14T11:46:14+02:00</time>
      </trkpt>
      <trkpt lat="45.92293" lon="4.39212">
        <ele>731</ele>
        <time>2021-04-14T11:46:19+02:00</time>
      </trkpt>
      <trkpt lat="45.92275" lon="4.39229">
        <ele>730</ele>
        <time>2021-04-14T11:46:24+02:00</time>
      </trkpt>
      <trkpt lat="45.92198" lon="4.39246">
        <ele>728</ele>
        <time>2021-04-14T11:46:29+02:00</time>
      </trkpt>
      <trkpt lat="45.92066" lon="4.39446">
        <ele>729</ele>
        <time>2021-04-14T11:46:34+02:00</time>
      </trkpt>
      <trkpt lat="45.91805" lon="4.39622">
        <ele>686</ele>
        <time>2021-04-14T11:46:39+02:00</time>
      </trkpt>
      <trkpt lat="45.91768" lon="4.39637">
        <ele>680</ele>
        <time>2021-04-14T11:46:44+02:00</time>
      </trkpt>
      <trkpt lat="45.91751" lon="4.39648">
        <ele>678</ele>
        <time>2021-04-14T11:46:49+02:00</time>
      </trkpt>
      <trkpt lat="45.91717" lon="4.39626">
        <ele>675</ele>
        <time>2021-04-14T11:46:54+02:00</time>
      </trkpt>
      <trkpt lat="45.9169" lon="4.39667">
        <ele>674</ele>
        <time>2021-04-14T11:46:59+02:00</time>
      </trkpt>
      <trkpt lat="45.91642" lon="4.39714">
        <ele>675</ele>
        <time>2021-04-14T11:47:04+02:00</time>
      </trkpt>
      <trkpt lat="45.91466" lon="4.39785">
        <ele>690</ele>
        <time>2021-04-14T11:47:09+02:00</time>
      </trkpt>
      <trkpt lat="45.91414" lon="4.39875">
        <ele>689</ele>
        <time>2021-04-14T11:47:14+02:00</time>
      </trkpt>
      <trkpt lat="45.91401" lon="4.39946">
        <ele>687</ele>
        <time>2021-04-14T11:47:19+02:00</time>
      </trkpt>
      <trkpt lat="45.91254" lon="4.40313">
        <ele>722</ele>
        <time>2021-04-14T11:47:24+02:00</time>
      </trkpt>
      <trkpt lat="45.91219" lon="4.40362">
        <ele>724</ele>
        <time>2021-04-14T11:47:29+02:00</time>
      </trkpt>
      <trkpt lat="45.91193" lon="4.40545">
        <ele>723</ele>
        <time>2021-04-14T11:47:34+02:00</time>
      </trkpt>
      <trkpt lat="45.91116" lon="4.40658">
        <ele>713</ele>
        <time>2021-04-14T11:47:39+02:00</time>
      </trkpt>
      <trkpt lat="45.90948" lon="4.40787">
        <ele>695</ele>
        <time>2021-04-14T11:47:44+02:00</time>
      </trkpt>
      <trkpt lat="45.90912" lon="4.40877">
        <ele>688</ele>
        <time>2021-04-14T11:47:49+02:00</time>
      </trkpt>
      <trkpt lat="45.90848" lon="4.40952">
        <ele>682</ele>
        <time>2021-04-14T11:47:54+02:00</time>
      </trkpt>
      <trkpt lat="45.9082" lon="4.41032">
        <ele>683</ele>
        <time>2021-04-14T11:47:59+02:00</time>
      </trkpt>
      <trkpt lat="45.90584" lon="4.41317">
        <ele>660</ele>
        <time>2021-04-14T11:48:04+02:00</time>
      </trkpt>
      <trkpt lat="45.90545" lon="4.41422">
        <ele>651</ele>
        <time>2021-04-14T11:48:09+02:00</time>
      </trkpt>
      <trkpt lat="45.90324" lon="4.41836">
        <ele>602</ele>
        <time>2021-04-14T11:48:14+02:00</time>
      </trkpt>
      <trkpt lat="45.90327" lon="4.41916">
        <ele>597</ele>
        <time>2021-04-14T11:48:19+02:00</time>
      </trkpt>
      <trkpt lat="45.90288" lon="4.42023">
        <ele>598</ele>
        <time>2021-04-14T11:48:24+02:00</time>
      </trkpt>
      <trkpt lat="45.90269" lon="4.42057">
        <ele>598</ele>
        <time>2021-04-14T11:48:29+02:00</time>
      </trkpt>
      <trkpt lat="45.90254" lon="4.42115">
        <ele>594</ele>
        <time>2021-04-14T11:48:34+02:00</time>
      </trkpt>
      <trkpt lat="45.90208" lon="4.42212">
        <ele>575</ele>
        <time>2021-04-14T11:48:39+02:00</time>
      </trkpt>
      <trkpt lat="45.90117" lon="4.42345">
        <ele>567</ele>
        <time>2021-04-14T11:48:44+02:00</time>
      </trkpt>
      <trkpt lat="45.90135" lon="4.42643">
        <ele>509</ele>
        <time>2021-04-14T11:48:49+02:00</time>
      </trkpt>
      <trkpt lat="45.90108" lon="4.42738">
        <ele>488</ele>
        <time>2021-04-14T11:48:54+02:00</time>
      </trkpt>
      <trkpt lat="45.90009" lon="4.42922">
        <ele>445</ele>
        <time>2021-04-14T11:48:59+02:00</time>
      </trkpt>
      <trkpt lat="45.89887" lon="4.42993">
        <ele>413</ele>
        <time>2021-04-14T11:49:04+02:00</time>
      </trkpt>
      <trkpt lat="45.89884" lon="4.43064">
        <ele>405</ele>
        <time>2021-04-14T11:49:09+02:00</time>
      </trkpt>
      <trkpt lat="45.89782" lon="4.43096">
        <ele>402</ele>
        <time>2021-04-14T11:49:14+02:00</time>
      </trkpt>
      <trkpt lat="45.89794" lon="4.43139">
        <ele>398</ele>
        <time>2021-04-14T11:49:19+02:00</time>
      </trkpt>
      <trkpt lat="45.89854" lon="4.43193">
        <ele>393</ele>
        <time>2021-04-14T11:49:24+02:00</time>
      </trkpt>
      <trkpt lat="45.89866" lon="4.43223">
        <ele>393</ele>
        <time>2021-04-14T11:49:29+02:00</time>
      </trkpt>
    </trkseg>
  </trk>
</gpx>